Time;durP1;ratioP1;P1;durP2;ratioP2;P2;SDS_P1;SDS_P2;PMS_P1;PMS_P2;Temp;Humidity;BMP_temperature;BMP_pressure;BME280_temperature;BME280_humidity;BME280_pressure;Samples;Min_cycle;Max_cycle;Signal;HPM_P1;HPM_P2
2022/09/09 00:02:01;;;;;;;14.00;7.58;;;;;;;8.98;90.54;99733.48;1744160;82;21045;-71
2022/09/09 00:04:31;;;;;;;11.65;7.33;;;;;;;8.90;91.10;99734.16;1744213;82;20991;-71
2022/09/09 00:07:34;;;;;;;10.35;7.10;;;;;;;8.81;91.51;99732.67;1744218;82;20955;-72
2022/09/09 00:10:28;;;;;;;8.70;6.50;;;;;;;8.75;91.70;99740.66;1744575;82;21133;-72
2022/09/09 00:13:23;;;;;;;11.10;6.22;;;;;;;8.66;92.04;99742.66;1744144;82;20967;-71
2022/09/09 00:16:23;;;;;;;10.98;6.20;;;;;;;8.60;92.41;99744.98;1679695;85;20959;-71
2022/09/09 00:19:21;;;;;;;8.58;6.30;;;;;;;8.54;92.57;99738.70;1743542;81;20990;-71
2022/09/09 00:22:18;;;;;;;14.68;7.30;;;;;;;8.50;92.65;99740.97;1743718;82;20963;-71
2022/09/09 00:24:53;;;;;;;8.80;6.20;;;;;;;8.48;92.62;99744.89;1744227;82;21162;-71
2022/09/09 00:27:31;;;;;;;7.17;6.10;;;;;;;8.43;92.51;99750.65;1741366;82;21585;-71
2022/09/09 00:30:22;;;;;;;9.73;6.35;;;;;;;8.39;92.48;99751.66;1743351;82;21474;-71
2022/09/09 00:32:53;;;;;;;8.88;5.90;;;;;;;8.35;92.38;99747.89;1743774;82;20970;-71
2022/09/09 00:35:33;;;;;;;9.40;6.55;;;;;;;8.29;92.71;99742.39;1679928;85;21015;-71
2022/09/09 00:38:23;;;;;;;7.10;5.62;;;;;;;8.24;93.20;99739.91;1744163;82;21149;-71
2022/09/09 00:40:59;;;;;;;7.12;5.40;;;;;;;8.16;93.51;99728.93;1744125;82;20982;-71
2022/09/09 00:43:31;;;;;;;6.28;4.92;;;;;;;8.09;93.87;99714.88;1679918;85;20967;-71
2022/09/09 00:46:39;;;;;;;7.33;5.15;;;;;;;8.04;94.18;99703.78;1723936;81;21037;-72
2022/09/09 00:49:26;;;;;;;6.72;5.35;;;;;;;8.01;94.59;99706.45;1744148;82;20982;-71
2022/09/09 00:52:18;;;;;;;6.60;4.50;;;;;;;8.01;94.91;99703.86;1744256;82;21106;-71
2022/09/09 00:55:18;;;;;;;5.83;4.37;;;;;;;8.02;95.09;99705.56;1679225;85;21010;-71
2022/09/09 00:57:46;;;;;;;5.85;4.80;;;;;;;8.08;95.18;99702.81;1626511;86;21154;-72
2022/09/09 01:00:20;;;;;;;6.90;4.20;;;;;;;8.11;94.97;99702.30;1618952;88;21041;-71
2022/09/09 01:02:52;;;;;;;5.75;3.80;;;;;;;8.13;94.81;99706.14;1690471;82;20935;-71
2022/09/09 01:05:36;;;;;;;7.50;4.00;;;;;;;8.15;94.68;99709.09;1744571;82;21727;-71
2022/09/09 01:08:24;;;;;;;6.58;4.20;;;;;;;8.17;94.69;99712.50;1744100;82;21085;-72
2022/09/09 01:10:53;;;;;;;6.85;4.78;;;;;;;8.19;94.63;99710.69;1743456;82;21109;-70
2022/09/09 01:13:30;;;;;;;6.25;4.40;;;;;;;8.23;94.75;99715.34;1722748;82;21362;-70
2022/09/09 01:16:07;;;;;;;8.60;4.53;;;;;;;8.27;94.69;99713.92;1721912;82;20962;-72
2022/09/09 01:18:42;;;;;;;5.55;4.12;;;;;;;8.32;94.46;99719.42;1699445;83;21271;-72
2022/09/09 01:21:37;;;;;;;;;;;;;;;8.34;94.22;99721.56;1691394;84;20966;-72
2022/09/09 01:24:15;;;;;;;10.38;5.95;;;;;;;8.34;94.41;99724.16;1709377;83;20149;-72
2022/09/09 01:26:59;;;;;;;12.90;5.75;;;;;;;8.28;95.27;99735.06;1706426;84;21022;-72
2022/09/09 01:29:26;;;;;;;7.47;4.83;;;;;;;8.23;95.71;99729.59;1709676;83;20978;-72
2022/09/09 01:32:03;;;;;;;9.33;5.20;;;;;;;8.17;95.97;99726.75;1709799;83;21566;-72
2022/09/09 01:34:38;;;;;;;9.40;6.28;;;;;;;8.14;96.28;99729.86;1675267;84;21037;-71
2022/09/09 01:37:09;;;;;;;13.05;6.45;;;;;;;8.09;96.95;99720.91;1675825;85;20998;-71
2022/09/09 01:39:39;;;;;;;10.43;6.00;;;;;;;8.09;97.79;99721.36;1653246;86;25455;-71
2022/09/09 01:42:09;;;;;;;8.58;6.22;;;;;;;8.09;98.20;99720.91;1709358;84;20959;-71
2022/09/09 01:44:36;;;;;;;9.23;5.92;;;;;;;8.08;98.56;99722.25;1709756;83;21127;-71
2022/09/09 01:47:04;;;;;;;8.08;6.00;;;;;;;8.07;98.59;99720.55;1709784;83;21001;-71
2022/09/09 01:49:32;;;;;;;9.90;6.58;;;;;;;8.05;98.64;99724.47;1709711;83;21517;-71
2022/09/09 01:52:01;;;;;;;7.95;5.75;;;;;;;8.02;98.60;99717.22;1674900;85;21062;-71
2022/09/09 01:54:31;;;;;;;12.13;5.35;;;;;;;7.99;98.43;99712.16;1674683;85;20979;-71
2022/09/09 01:57:17;;;;;;;9.10;5.30;;;;;;;7.97;98.45;99714.78;1709668;84;21240;-71
2022/09/09 01:59:57;;;;;;;9.38;6.12;;;;;;;7.93;98.50;99705.39;1709564;83;20954;-71
2022/09/09 02:03:07;;;;;;;10.10;5.33;;;;;;;7.89;98.56;99703.32;1717290;83;21045;-71
2022/09/09 02:05:47;;;;;;;6.92;5.03;;;;;;;7.82;98.45;99703.06;1710614;83;20998;-71
2022/09/09 02:08:44;;;;;;;7.42;4.83;;;;;;;7.74;98.53;99707.62;1690320;84;21451;-71
2022/09/09 02:11:19;;;;;;;5.83;4.33;;;;;;;7.70;98.67;99703.41;1709973;83;21100;-71
2022/09/09 02:13:49;;;;;;;6.87;4.60;;;;;;;7.63;98.65;99711.36;1709269;83;20938;-72
2022/09/09 02:16:25;;;;;;;5.87;4.90;;;;;;;7.56;98.75;99722.33;1675196;85;20955;-71
2022/09/09 02:19:03;;;;;;;5.80;4.60;;;;;;;7.51;98.88;99721.14;1725093;82;21069;-71
2022/09/09 02:21:34;;;;;;;6.40;4.75;;;;;;;7.49;99.16;99717.74;1731576;82;21051;-71
2022/09/09 02:24:05;;;;;;;6.83;5.00;;;;;;;7.47;99.28;99719.52;1732475;82;21097;-71
2022/09/09 02:26:33;;;;;;;5.92;4.58;;;;;;;7.47;99.39;99727.28;1732112;82;21158;-71
2022/09/09 02:29:03;;;;;;;7.65;4.72;;;;;;;7.44;99.45;99727.34;1696792;83;21105;-71
2022/09/09 02:31:31;;;;;;;6.90;4.83;;;;;;;7.41;99.85;99721.39;1712038;82;21023;-71
2022/09/09 02:34:01;;;;;;;7.20;4.92;;;;;;;7.38;100.00;99727.97;1656303;85;20995;-71
2022/09/09 02:36:33;;;;;;;8.88;5.95;;;;;;;7.33;100.00;99720.30;1680402;85;21909;-71
2022/09/09 02:39:00;;;;;;;6.58;5.22;;;;;;;7.29;100.00;99722.55;1708351;82;20927;-71
2022/09/09 02:41:34;;;;;;;7.80;5.50;;;;;;;7.26;100.00;99718.30;1655083;86;21019;-71
2022/09/09 02:44:01;;;;;;;12.10;5.55;;;;;;;7.21;100.00;99733.52;1729572;83;21046;-71
2022/09/09 02:47:15;;;;;;;9.15;5.20;;;;;;;7.16;100.00;99733.65;1730320;82;21412;-71
2022/09/09 02:50:09;;;;;;;10.88;5.87;;;;;;;7.12;100.00;99722.96;1731554;82;21235;-71
2022/09/09 02:52:44;;;;;;;16.30;7.92;;;;;;;7.09;100.00;99728.20;1732266;82;20944;-71
2022/09/09 02:55:21;;;;;;;13.08;7.72;;;;;;;7.05;100.00;99730.44;1732160;82;21089;-71
2022/09/09 02:57:49;;;;;;;11.43;6.87;;;;;;;7.04;100.00;99732.62;1726207;82;20959;-72
2022/09/09 03:00:16;;;;;;;12.78;6.97;;;;;;;7.00;100.00;99729.69;1732101;82;20955;-71
2022/09/09 03:02:43;;;;;;;10.13;6.70;;;;;;;6.97;100.00;99727.64;1732087;82;21150;-72
2022/09/09 03:05:09;;;;;;;9.95;6.70;;;;;;;6.91;100.00;99735.94;1731392;82;20979;-72
2022/09/09 03:07:37;;;;;;;9.00;5.60;;;;;;;6.88;100.00;99733.42;1732160;82;20967;-72
2022/09/09 03:10:05;;;;;;;9.03;6.33;;;;;;;6.87;100.00;99734.73;1707235;82;20995;-72
2022/09/09 03:12:33;;;;;;;8.78;6.28;;;;;;;6.86;100.00;99742.09;1655128;86;21019;-72
2022/09/09 03:15:00;;;;;;;7.03;5.08;;;;;;;6.87;100.00;99744.64;1729593;83;21396;-72
2022/09/09 03:17:27;;;;;;;6.80;4.83;;;;;;;6.86;100.00;99742.09;1729616;82;20940;-72
2022/09/09 03:19:54;;;;;;;9.55;5.70;;;;;;;6.83;100.00;99747.32;1679663;85;21002;-72
2022/09/09 03:22:21;;;;;;;7.42;5.28;;;;;;;6.79;100.00;99756.91;1708426;84;21014;-72
2022/09/09 03:24:48;;;;;;;7.25;5.37;;;;;;;6.79;100.00;99757.34;1708424;84;20939;-72
2022/09/09 03:27:15;;;;;;;8.60;4.80;;;;;;;6.80;100.00;99761.16;1708398;84;21138;-72
2022/09/09 03:29:44;;;;;;;7.85;5.08;;;;;;;6.81;100.00;99759.42;1744483;82;21537;-72
2022/09/09 03:32:13;;;;;;;7.72;5.00;;;;;;;6.84;100.00;99761.51;1744358;82;21053;-72
2022/09/09 03:34:40;;;;;;;20.23;7.12;;;;;;;6.86;100.00;99766.20;1744550;82;20971;-72
2022/09/09 03:37:07;;;;;;;9.63;5.40;;;;;;;6.93;100.00;99759.62;1679960;85;20970;-72
2022/09/09 03:39:34;;;;;;;7.47;5.67;;;;;;;6.98;100.00;99761.67;1708434;84;21291;-72
2022/09/09 03:42:03;;;;;;;7.25;4.53;;;;;;;7.04;100.00;99769.27;1687646;84;21110;-72
2022/09/09 03:44:30;;;;;;;13.00;5.35;;;;;;;7.14;100.00;99767.75;1708434;83;21439;-72
2022/09/09 03:47:00;;;;;;;6.30;4.90;;;;;;;7.31;100.00;99767.80;1708524;84;21443;-72
2022/09/09 03:49:28;;;;;;;8.48;5.00;;;;;;;7.46;100.00;99764.39;1708445;84;21006;-72
2022/09/09 03:51:57;;;;;;;11.80;5.30;;;;;;;7.55;100.00;99769.81;1688221;84;21823;-72
2022/09/09 03:54:24;;;;;;;7.42;4.67;;;;;;;7.61;100.00;99769.64;1708340;84;20987;-72
2022/09/09 03:56:51;;;;;;;14.03;5.45;;;;;;;7.68;100.00;99780.70;1723177;82;21050;-72
2022/09/09 03:59:18;;;;;;;7.53;4.45;;;;;;;7.73;100.00;99773.23;1680178;85;21014;-72
2022/09/09 04:01:46;;;;;;;7.60;4.75;;;;;;;7.82;100.00;99769.55;1744488;82;21050;-72
2022/09/09 04:04:13;;;;;;;6.12;4.70;;;;;;;7.93;100.00;99763.66;1744232;82;21161;-72
2022/09/09 04:06:40;;;;;;;9.53;5.75;;;;;;;8.04;99.66;99761.62;1679833;85;21530;-72
2022/09/09 04:09:07;;;;;;;7.70;4.37;;;;;;;8.29;99.36;99761.82;1708371;84;20994;-72
2022/09/09 04:11:34;;;;;;;7.42;4.37;;;;;;;8.67;98.65;99758.17;1708393;84;20954;-72
2022/09/09 04:14:01;;;;;;;8.15;4.83;;;;;;;9.11;97.07;99755.55;1688126;84;21053;-72
2022/09/09 04:16:29;;;;;;;6.53;4.42;;;;;;;9.56;94.80;99748.05;1708379;84;21145;-72
2022/09/09 04:18:55;;;;;;;6.03;4.20;;;;;;;9.98;92.46;99752.70;1683671;84;20967;-72
2022/09/09 04:21:23;;;;;;;9.23;3.85;;;;;;;10.37;90.58;99748.33;1735830;82;20995;-72
2022/09/09 04:23:49;;;;;;;5.45;4.28;;;;;;;10.68;88.71;99743.23;1729421;82;21003;-72
2022/09/09 04:26:17;;;;;;;5.42;3.85;;;;;;;10.97;87.22;99743.44;1729467;82;20956;-72
2022/09/09 04:28:44;;;;;;;6.05;3.72;;;;;;;11.21;85.91;99739.45;1729412;82;21117;-72
2022/09/09 04:31:18;;;;;;;8.25;4.60;;;;;;;11.38;84.75;99743.56;1729248;82;20999;-72
2022/09/09 04:33:46;;;;;;;7.40;4.55;;;;;;;11.54;83.81;99739.42;1729472;82;20994;-72
2022/09/09 04:36:14;;;;;;;7.62;4.55;;;;;;;11.67;83.15;99737.99;1729412;82;21030;-72
2022/09/09 04:38:41;;;;;;;6.75;4.20;;;;;;;11.73;82.15;99739.05;1729436;83;20967;-73
2022/09/09 04:41:11;;;;;;;6.65;4.97;;;;;;;11.69;81.72;99736.17;1729450;83;21791;-72
2022/09/09 04:43:38;;;;;;;7.03;4.10;;;;;;;11.60;82.01;99743.05;1729424;83;20995;-72
2022/09/09 04:46:05;;;;;;;15.80;4.25;;;;;;;11.57;82.19;99743.66;1729454;83;21494;-72
2022/09/09 04:48:33;;;;;;;6.20;4.03;;;;;;;11.53;82.39;99741.63;1729398;82;21495;-72
2022/09/09 04:51:05;;;;;;;7.60;3.83;;;;;;;11.53;82.52;99739.48;1729699;82;21007;-72
2022/09/09 04:53:34;;;;;;;5.15;3.65;;;;;;;11.54;82.56;99734.21;1726793;83;21187;-72
2022/09/09 04:56:07;;;;;;;10.88;3.92;;;;;;;11.59;82.64;99718.39;1729344;82;21507;-72
2022/09/09 04:58:36;;;;;;;5.10;3.65;;;;;;;11.65;82.62;99721.57;1729311;82;20987;-72
2022/09/09 05:01:13;;;;;;;6.30;3.85;;;;;;;11.71;82.62;99720.48;1728895;82;21058;-72
2022/09/09 05:03:40;;;;;;;9.83;4.65;;;;;;;11.77;82.10;99723.32;1724926;83;20987;-72
2022/09/09 05:06:11;;;;;;;42.43;8.13;;;;;;;11.83;81.81;99735.61;1730568;82;21276;-72
2022/09/09 05:08:39;;;;;;;7.40;3.75;;;;;;;11.91;81.91;99735.30;1730645;83;20943;-72
2022/09/09 05:11:16;;;;;;;5.67;4.00;;;;;;;12.00;81.74;99730.98;1730548;83;20994;-72
2022/09/09 05:13:47;;;;;;;6.55;4.47;;;;;;;12.12;81.09;99736.14;1726728;83;21074;-72
2022/09/09 05:16:14;;;;;;;5.90;3.47;;;;;;;12.21;80.79;99733.96;1708677;84;21062;-72
2022/09/09 05:18:42;;;;;;;5.40;3.37;;;;;;;12.27;80.44;99735.00;1714077;82;21224;-73
2022/09/09 05:21:10;;;;;;;4.33;3.92;;;;;;;12.32;80.10;99731.74;1705406;82;20993;-74
2022/09/09 05:23:37;;;;;;;6.40;4.28;;;;;;;12.40;79.42;99737.45;1635619;86;21018;-74
2022/09/09 05:26:04;;;;;;;7.67;3.80;;;;;;;12.48;79.00;99734.51;1688924;84;21003;-74
2022/09/09 05:28:39;;;;;;;4.90;3.85;;;;;;;12.57;78.74;99732.80;1677664;85;21110;-74
2022/09/09 05:31:07;;;;;;;6.08;3.15;;;;;;;12.66;78.22;99729.75;1653250;86;21944;-75
2022/09/09 05:33:36;;;;;;;7.22;4.22;;;;;;;12.73;77.94;99731.64;1710365;83;21069;-74
2022/09/09 05:36:07;;;;;;;6.67;3.60;;;;;;;12.77;77.28;99730.59;1710447;83;21069;-74
2022/09/09 05:38:35;;;;;;;5.97;4.00;;;;;;;12.81;76.61;99732.11;1706764;83;21045;-74
2022/09/09 05:41:02;;;;;;;4.72;3.42;;;;;;;12.88;76.46;99723.09;1704047;84;22268;-74
2022/09/09 05:43:29;;;;;;;5.40;3.70;;;;;;;12.96;76.14;99721.44;1703734;84;21293;-74
2022/09/09 05:46:04;;;;;;;7.15;3.52;;;;;;;13.01;75.73;99731.18;1703361;84;21078;-74
2022/09/09 05:48:32;;;;;;;5.92;3.70;;;;;;;13.04;75.60;99732.34;1703908;84;21014;-74
2022/09/09 05:50:59;;;;;;;7.85;3.75;;;;;;;13.09;75.53;99723.84;1702912;84;21112;-74
2022/09/09 05:53:26;;;;;;;7.40;4.53;;;;;;;13.19;75.09;99737.36;1695532;81;21048;-74
2022/09/09 05:56:06;;;;;;;6.12;3.83;;;;;;;13.29;74.23;99731.59;1723850;81;22190;-74
2022/09/09 05:58:37;;;;;;;5.60;3.62;;;;;;;13.37;74.06;99726.86;1726862;83;37630;-73
2022/09/09 06:01:11;;;;;;;8.75;3.25;;;;;;;13.47;73.25;99719.86;1671797;84;21049;-74
2022/09/09 06:03:39;;;;;;;8.10;3.40;;;;;;;13.54;73.04;99716.88;1677619;83;21133;-74
2022/09/09 06:06:11;;;;;;;7.22;3.20;;;;;;;13.62;72.15;99715.17;1629789;87;21069;-74
2022/09/09 06:08:40;;;;;;;4.87;3.40;;;;;;;13.69;72.15;99712.19;1675346;84;21134;-74
2022/09/09 06:11:11;;;;;;;4.87;3.22;;;;;;;13.79;71.82;99712.55;1701015;84;21618;-73
2022/09/09 06:13:38;;;;;;;4.62;3.25;;;;;;;13.85;70.97;99701.80;1691654;83;21055;-73
2022/09/09 06:16:11;;;;;;;5.00;3.85;;;;;;;13.91;70.11;99696.72;1689452;83;21023;-74
2022/09/09 06:18:39;;;;;;;5.95;3.40;;;;;;;13.92;69.69;99703.18;1691348;82;21216;-74
2022/09/09 06:21:11;;;;;;;3.47;2.72;;;;;;;13.97;69.71;99710.34;1728238;82;21178;-74
2022/09/09 06:23:40;;;;;;;4.50;3.17;;;;;;;14.04;69.50;99714.30;1730658;82;21075;-74
2022/09/09 06:26:13;;;;;;;4.70;3.10;;;;;;;14.14;68.67;99710.77;1732599;82;21043;-74
2022/09/09 06:28:42;;;;;;;4.97;3.40;;;;;;;14.23;67.95;99711.58;1731548;81;21372;-74
2022/09/09 06:31:12;;;;;;;5.45;3.40;;;;;;;14.33;67.44;99714.11;1699430;83;21565;-74
2022/09/09 06:33:41;;;;;;;5.70;2.60;;;;;;;14.44;66.57;99720.94;1661638;85;21266;-74
2022/09/09 06:36:12;;;;;;;6.05;2.85;;;;;;;14.56;66.19;99723.84;1664135;85;20974;-74
2022/09/09 06:38:39;;;;;;;8.75;3.27;;;;;;;14.69;66.05;99727.02;1652483;85;21006;-73
2022/09/09 06:41:06;;;;;;;4.67;3.17;;;;;;;14.86;65.07;99725.25;1665018;85;21652;-72
2022/09/09 06:43:34;;;;;;;3.40;2.62;;;;;;;15.02;65.10;99722.16;1667987;84;21038;-74
2022/09/09 06:46:18;;;;;;;5.55;3.00;;;;;;;15.23;64.02;99730.12;1680032;84;21933;-74
2022/09/09 06:48:45;;;;;;;4.95;3.60;;;;;;;15.53;62.76;99728.02;1704555;83;20999;-73
2022/09/09 06:51:24;;;;;;;5.67;3.33;;;;;;;15.53;62.76;99728.02;1658693;86;21525;-73
2022/09/09 06:53:53;;;;;;;17.82;10.13;;;;;;;15.69;62.12;99738.87;1668451;85;21066;-74
2022/09/09 06:56:31;;;;;;;6.83;3.72;;;;;;;15.86;61.73;99726.08;1669690;85;21088;-74
2022/09/09 06:59:03;;;;;;;5.40;3.02;;;;;;;15.99;60.67;99732.27;1671777;85;21738;-73
2022/09/09 07:01:35;;;;;;;4.08;2.92;;;;;;;16.08;60.17;99741.39;1667970;85;21038;-73
2022/09/09 07:04:04;;;;;;;7.35;2.80;;;;;;;16.13;59.25;99744.59;1668006;86;21050;-74
2022/09/09 07:06:36;;;;;;;5.22;2.98;;;;;;;16.13;59.04;99745.91;1649043;86;21183;-74
2022/09/09 07:09:11;;;;;;;9.43;3.67;;;;;;;16.08;59.16;99754.51;1667866;85;21040;-74
2022/09/09 07:11:45;;;;;;;4.47;2.50;;;;;;;16.06;59.11;99757.22;1653202;85;21242;-74
2022/09/09 07:14:13;;;;;;;5.75;3.27;;;;;;;16.06;59.07;99759.84;1638322;85;21038;-74
2022/09/09 07:16:41;;;;;;;4.72;3.12;;;;;;;16.05;59.38;99756.00;1662493;85;21122;-74
2022/09/09 07:19:11;;;;;;;6.20;2.60;;;;;;;16.01;58.21;99759.73;1667976;85;21090;-74
2022/09/09 07:21:40;;;;;;;6.80;2.98;;;;;;;15.95;58.05;99760.96;1670197;85;21599;-74
2022/09/09 07:24:09;;;;;;;8.70;3.08;;;;;;;15.92;58.11;99759.83;1672671;85;21314;-73
2022/09/09 07:26:38;;;;;;;7.15;3.20;;;;;;;15.91;58.29;99770.41;1672688;85;22074;-74
2022/09/09 07:29:05;;;;;;;4.40;2.83;;;;;;;15.89;58.51;99763.09;1672922;85;21048;-74
2022/09/09 07:31:36;;;;;;;7.05;3.00;;;;;;;15.89;58.59;99761.77;1672028;85;21038;-73
2022/09/09 07:37:22;;;;;;;6.08;2.80;;;;;;;15.85;58.37;99767.20;1675790;85;21539;-73
2022/09/09 07:39:50;;;;;;;4.53;3.33;;;;;;;15.84;58.56;99768.12;1662966;84;21140;-74
2022/09/09 07:42:19;;;;;;;15.10;9.50;;;;;;;15.85;58.56;99768.51;1677494;85;21121;-73
2022/09/09 07:44:46;;;;;;;46.10;25.30;;;;;;;15.91;58.81;99769.09;1676282;84;21052;-74
2022/09/09 07:47:15;;;;;;;28.02;15.23;;;;;;;15.97;58.57;99766.12;1683823;85;21061;-73
2022/09/09 07:49:46;;;;;;;9.00;6.33;;;;;;;16.01;58.28;99763.20;1683597;85;21118;-74
2022/09/09 07:52:14;;;;;;;10.93;4.60;;;;;;;16.01;58.36;99768.45;1683367;85;21177;-74
2022/09/09 07:54:43;;;;;;;6.72;3.85;;;;;;;15.98;59.18;99765.19;1682505;85;21095;-74
2022/09/09 07:57:12;;;;;;;7.05;3.83;;;;;;;15.98;59.60;99762.56;1701999;83;21105;-75
2022/09/09 07:59:40;;;;;;;9.85;3.83;;;;;;;15.97;60.38;99759.09;1715002;83;21025;-74
2022/09/09 08:02:14;;;;;;;8.08;3.72;;;;;;;15.94;62.05;99761.89;1683893;84;21197;-74
2022/09/09 08:04:44;;;;;;;8.05;5.35;;;;;;;15.94;62.26;99764.98;1677079;85;21044;-74
2022/09/09 08:07:12;;;;;;;9.40;4.47;;;;;;;15.92;63.83;99767.69;1686519;84;21174;-74
2022/09/09 08:09:43;;;;;;;7.42;3.87;;;;;;;15.95;65.33;99770.14;1697071;83;21516;-74
2022/09/09 08:12:14;;;;;;;6.83;3.72;;;;;;;15.97;63.80;99760.41;1697778;82;21048;-74
2022/09/09 08:14:42;;;;;;;7.05;3.92;;;;;;;15.95;64.35;99767.52;1722219;82;22003;-74
2022/09/09 08:17:10;;;;;;;6.87;3.42;;;;;;;15.94;64.21;99759.73;1723789;82;21038;-75
2022/09/09 08:19:37;;;;;;;8.73;3.60;;;;;;;15.92;64.42;99762.91;1735315;82;21114;-72
2022/09/09 08:22:08;;;;;;;6.62;3.50;;;;;;;15.86;65.01;99761.48;1724155;82;21057;-75
2022/09/09 08:24:38;;;;;;;6.58;3.75;;;;;;;15.84;65.30;99755.48;1701024;83;20966;-75
2022/09/09 08:27:09;;;;;;;6.53;4.12;;;;;;;15.83;65.50;99753.79;1698862;83;21262;-74
2022/09/09 08:29:39;;;;;;;9.38;4.00;;;;;;;15.79;65.41;99745.25;1725811;83;21057;-72
2022/09/09 08:32:06;;;;;;;8.23;4.80;;;;;;;15.74;65.95;99747.32;1733833;82;21307;-73
2022/09/09 08:34:33;;;;;;;5.20;3.87;;;;;;;15.66;66.08;99748.22;1733204;82;21014;-73
2022/09/09 08:37:03;;;;;;;5.75;3.77;;;;;;;15.59;65.56;99748.68;1731061;82;21228;-73
2022/09/09 08:39:34;;;;;;;4.85;3.47;;;;;;;15.52;66.80;99748.14;1721252;82;21609;-74
2022/09/09 08:42:39;;;;;;;8.35;3.80;;;;;;;15.49;66.32;99747.00;1727018;82;20955;-74
2022/09/09 08:45:34;;;;;;;6.53;4.03;;;;;;;15.45;66.47;99746.33;1732617;82;21499;-73
2022/09/09 08:48:48;;;;;;;8.25;4.37;;;;;;;15.38;66.91;99750.72;1733040;82;21126;-73
2022/09/09 08:51:15;;;;;;;4.72;3.45;;;;;;;15.28;67.22;99743.83;1732961;82;21046;-73
2022/09/09 08:53:46;;;;;;;11.15;4.50;;;;;;;15.18;67.83;99740.52;1733028;82;21208;-73
2022/09/09 08:56:18;;;;;;;6.20;4.22;;;;;;;15.09;68.62;99737.92;1733244;82;21082;-73
2022/09/09 08:58:52;;;;;;;5.72;4.03;;;;;;;14.98;68.84;99733.30;1733546;82;21000;-73
2022/09/09 09:01:40;;;;;;;5.85;4.40;;;;;;;14.88;69.94;99734.72;1730030;82;21032;-73
2022/09/09 09:04:32;;;;;;;5.28;3.80;;;;;;;14.81;70.93;99741.20;1730731;82;21055;-73
2022/09/09 09:07:21;;;;;;;14.68;4.97;;;;;;;14.77;71.63;99740.55;1716424;82;21169;-73
2022/09/09 09:10:24;;;;;;;6.65;4.03;;;;;;;14.75;72.03;99735.86;1716309;82;21596;-74
2022/09/09 09:12:51;;;;;;;9.40;4.62;;;;;;;14.74;73.15;99730.24;1746061;82;28270;-74
2022/09/09 09:15:25;;;;;;;7.50;4.20;;;;;;;14.77;74.00;99729.23;1734334;82;21560;-74
2022/09/09 09:17:53;;;;;;;5.70;4.47;;;;;;;14.77;74.00;99729.23;1743766;82;21102;-75
2022/09/09 09:20:48;;;;;;;9.23;4.42;;;;;;;14.79;73.67;99729.97;1744013;81;21248;-75
2022/09/09 09:23:24;;;;;;;6.72;4.42;;;;;;;14.80;73.89;99725.95;1704767;82;21043;-75
2022/09/09 09:25:57;;;;;;;6.12;4.20;;;;;;;14.83;73.03;99729.72;1740678;82;21001;-74
2022/09/09 09:28:29;;;;;;;7.00;4.30;;;;;;;14.83;73.03;99729.72;1742759;82;21540;-73
2022/09/09 09:31:07;;;;;;;7.60;4.58;;;;;;;14.86;72.32;99731.33;1735997;81;21930;-74
2022/09/09 09:33:49;;;;;;;6.92;4.50;;;;;;;14.92;72.31;99741.48;1745930;82;21193;-73
2022/09/09 09:36:16;;;;;;;12.47;4.70;;;;;;;15.02;72.99;99746.58;1731189;82;20959;-75
2022/09/09 09:39:01;;;;;;;6.12;4.90;;;;;;;15.20;72.18;99743.40;1720046;82;21010;-74
2022/09/09 09:41:38;;;;;;;6.45;4.75;;;;;;;15.32;71.79;99743.19;1719282;82;21022;-74
2022/09/09 09:44:21;;;;;;;7.15;4.67;;;;;;;15.45;70.85;99742.40;1658675;85;21405;-74
2022/09/09 09:46:49;;;;;;;9.63;5.65;;;;;;;15.53;70.53;99733.27;1677181;83;21265;-73
2022/09/09 09:49:17;;;;;;;9.23;5.50;;;;;;;15.55;70.01;99719.61;1671433;85;21110;-74
2022/09/09 09:51:43;;;;;;;7.83;5.03;;;;;;;15.54;69.26;99734.48;1669629;85;21488;-73
2022/09/09 09:54:27;;;;;;;6.85;4.97;;;;;;;15.53;69.46;99721.47;1669776;86;21004;-73
2022/09/09 09:56:57;;;;;;;8.83;4.58;;;;;;;15.51;69.39;99715.84;1669945;85;21064;-74
2022/09/09 09:59:34;;;;;;;7.35;4.78;;;;;;;15.52;69.22;99714.06;1669792;85;21142;-74
2022/09/09 10:02:16;;;;;;;7.25;5.12;;;;;;;15.53;69.19;99713.13;1669434;85;21576;-74
2022/09/09 10:04:45;;;;;;;8.20;4.60;;;;;;;15.53;68.80;99709.67;1675593;85;21085;-74
2022/09/09 10:07:20;;;;;;;8.68;5.00;;;;;;;15.56;68.26;99722.17;1668171;86;21101;-74
2022/09/09 10:09:52;;;;;;;5.95;4.72;;;;;;;15.57;68.68;99713.38;1674054;85;21632;-74
2022/09/09 10:12:36;;;;;;;5.87;4.70;;;;;;;15.59;67.60;99709.36;1667562;85;21165;-73
2022/09/09 10:15:55;;;;;;;7.00;4.70;;;;;;;15.59;67.33;99715.41;1664348;85;21074;-75
2022/09/09 10:18:57;;;;;;;8.28;4.78;;;;;;;15.60;67.44;99720.19;1660053;85;21126;-75
2022/09/09 10:21:41;;;;;;;5.60;4.60;;;;;;;15.60;66.42;99722.34;1669245;86;21132;-74
2022/09/09 10:24:28;;;;;;;;;;;;;;;15.58;65.89;99720.31;1671808;85;21039;-74
2022/09/09 10:27:26;;;;;;;7.45;4.12;;;;;;;15.53;65.54;99715.76;1669077;85;21709;-74
2022/09/09 10:30:18;;;;;;;10.00;4.00;;;;;;;15.49;64.99;99718.17;1676480;85;21042;-74
2022/09/09 10:33:10;;;;;;;5.95;3.87;;;;;;;15.46;65.34;99717.88;1679032;85;21183;-74
2022/09/09 10:36:08;;;;;;;9.58;4.75;;;;;;;15.48;65.03;99717.33;1680072;85;21121;-74
2022/09/09 10:38:46;;;;;;;7.70;4.35;;;;;;;15.56;64.46;99716.08;1679924;85;21191;-75
2022/09/09 10:41:41;;;;;;;11.55;4.37;;;;;;;15.67;64.68;99711.89;1679186;85;21121;-74
2022/09/09 10:44:54;;;;;;;7.25;5.15;;;;;;;15.81;63.26;99709.30;1673062;85;21073;-74
2022/09/09 10:48:02;;;;;;;8.65;4.78;;;;;;;15.99;63.86;99714.38;1704593;83;21021;-73
2022/09/09 10:50:49;;;;;;;6.92;4.22;;;;;;;16.18;62.29;99714.52;1728191;82;21015;-73
2022/09/09 10:53:30;;;;;;;7.72;4.28;;;;;;;16.29;61.82;99717.79;1719798;82;21042;-73
2022/09/09 10:56:01;;;;;;;7.40;5.40;;;;;;;16.38;61.66;99711.99;1733752;82;21257;-74
2022/09/09 10:58:35;;;;;;;9.50;4.53;;;;;;;16.49;60.42;99715.25;1735972;82;21512;-74
2022/09/09 11:01:09;;;;;;;10.95;5.03;;;;;;;16.58;60.46;99712.55;1736299;82;21070;-73
2022/09/09 11:03:39;;;;;;;7.28;4.90;;;;;;;16.67;60.20;99713.30;1731222;81;21558;-73
2022/09/09 11:06:21;;;;;;;9.05;4.20;;;;;;;16.77;60.28;99702.60;1732228;82;21522;-74
2022/09/09 11:08:49;;;;;;;9.58;4.97;;;;;;;16.88;60.02;99704.91;1719237;82;21178;-73
2022/09/09 11:11:34;;;;;;;8.50;4.40;;;;;;;17.02;59.80;99703.17;1732784;82;20938;-74
2022/09/09 11:14:30;;;;;;;8.63;4.08;;;;;;;17.11;58.85;99697.34;1724419;82;20998;-73
2022/09/09 11:17:02;;;;;;;10.55;4.30;;;;;;;17.20;58.73;99697.57;1730755;82;21316;-74
2022/09/09 11:19:35;;;;;;;8.25;4.40;;;;;;;17.27;58.20;99690.14;1733483;82;21034;-74
2022/09/09 11:22:09;;;;;;;;;;;;;;;17.34;58.06;99690.13;1700209;83;21567;-74
2022/09/09 11:24:46;;;;;;;7.03;4.20;;;;;;;17.39;58.09;99699.00;1735827;81;20135;-73
2022/09/09 11:27:21;;;;;;;8.73;3.95;;;;;;;17.39;57.89;99695.89;1697306;83;21051;-73
2022/09/09 11:30:13;;;;;;;6.03;3.80;;;;;;;17.36;56.61;99697.91;1652496;85;21085;-72
2022/09/09 11:32:55;;;;;;;9.68;4.80;;;;;;;17.25;56.55;99695.13;1693093;83;21506;-74
2022/09/09 11:36:02;;;;;;;9.18;4.12;;;;;;;17.14;57.01;99694.52;1700625;83;21501;-73
2022/09/09 11:38:47;;;;;;;6.70;4.40;;;;;;;17.07;57.48;99696.69;1693911;83;21059;-73
2022/09/09 11:41:15;;;;;;;6.70;4.08;;;;;;;17.00;57.73;99705.90;1727669;82;21053;-73
2022/09/09 11:43:51;;;;;;;7.12;3.75;;;;;;;16.90;57.39;99698.25;1697657;83;21036;-75
2022/09/09 11:46:20;;;;;;;9.25;4.80;;;;;;;16.83;57.46;99698.25;1731301;80;21062;-74
2022/09/09 11:49:03;;;;;;;7.83;4.42;;;;;;;16.75;58.15;99712.36;1728355;82;21243;-74
2022/09/09 11:51:32;;;;;;;5.28;4.28;;;;;;;16.69;58.26;99721.45;1656399;85;21039;-74
2022/09/09 11:54:23;;;;;;;8.23;4.33;;;;;;;16.63;58.97;99752.03;1688317;83;21125;-72
2022/09/09 11:56:50;;;;;;;8.08;4.58;;;;;;;16.57;59.09;99763.38;1715497;82;20996;-73
2022/09/09 11:59:29;;;;;;;7.90;4.70;;;;;;;16.50;59.79;99793.09;1735289;82;21018;-72
2022/09/09 12:02:16;;;;;;;4.83;4.10;;;;;;;16.44;60.81;99796.92;1736806;82;21131;-73
2022/09/09 12:05:09;;;;;;;6.30;4.55;;;;;;;16.40;61.27;99801.97;1735937;82;21033;-73
2022/09/09 12:07:44;;;;;;;8.55;4.58;;;;;;;16.34;63.52;99787.08;1732521;82;21088;-71
2022/09/09 12:10:35;;;;;;;6.35;4.65;;;;;;;16.26;66.43;99758.66;1730133;82;21042;-71
2022/09/09 12:13:24;;;;;;;6.62;5.10;;;;;;;16.11;68.77;99743.84;1711502;83;21093;-70
2022/09/09 12:16:11;;;;;;;;;;;;;;;;;;;;;
2022/09/09 12:18:39;;;;;;;5.83;4.28;;;;;;;15.63;71.11;99754.10;1672004;84;20980;-73